createdAt,value
2017-11-09T00:01:19.063Z,9.30
2017-11-09T00:03:51.005Z,9.40
2017-11-09T00:06:19.884Z,9.20
2017-11-09T00:08:45.929Z,9.20
2017-11-09T00:11:11.953Z,9.30
2017-11-09T00:13:37.892Z,9.30
2017-11-09T00:16:03.896Z,9.10
2017-11-09T00:18:29.935Z,9.30
2017-11-09T00:20:55.946Z,9.20
2017-11-09T00:23:21.964Z,9.20
2017-11-09T00:25:47.912Z,9.30
2017-11-09T00:28:13.869Z,9.30
2017-11-09T00:30:39.897Z,9.20
2017-11-09T00:33:05.867Z,9.10
2017-11-09T00:35:31.850Z,9.10
2017-11-09T00:37:57.817Z,9.10
2017-11-09T00:40:23.774Z,9.20
2017-11-09T00:42:49.784Z,9.20
2017-11-09T00:45:15.769Z,9.20
2017-11-09T00:47:41.744Z,9.20
2017-11-09T00:50:07.744Z,9.30
2017-11-09T00:52:34.475Z,9.20
2017-11-09T00:55:01.237Z,9.20
2017-11-09T00:57:27.273Z,9.20
2017-11-09T00:59:53.241Z,9.20
2017-11-09T01:02:19.308Z,9.20
2017-11-09T01:04:45.315Z,9.20
2017-11-09T01:07:12.059Z,9.30
2017-11-09T01:09:38.080Z,9.20
2017-11-09T01:12:04.077Z,9.20
2017-11-09T01:14:30.958Z,9.30
2017-11-09T01:16:56.937Z,9.10
2017-11-09T01:19:22.902Z,9.20
2017-11-09T01:21:49.057Z,9.20
2017-11-09T01:24:15.060Z,9.20
2017-11-09T01:26:41.030Z,9.20
2017-11-09T01:29:07.109Z,9.00
2017-11-09T01:31:33.089Z,9.10
2017-11-09T01:33:59.048Z,9.10
2017-11-09T01:36:25.059Z,9.10
2017-11-09T01:38:51.018Z,9.10
2017-11-09T01:41:17.008Z,9.10
2017-11-09T01:43:43.031Z,9.10
2017-11-09T01:46:09.012Z,9.10
2017-11-09T01:48:34.971Z,9.10
2017-11-09T01:51:00.981Z,9.10
2017-11-09T01:53:27.023Z,9.20
2017-11-09T01:55:52.963Z,9.10
2017-11-09T01:58:18.952Z,9.10
2017-11-09T02:00:44.939Z,9.00
2017-11-09T02:03:10.952Z,9.00
2017-11-09T02:05:36.954Z,9.00
2017-11-09T02:08:02.940Z,9.00
2017-11-09T02:10:28.918Z,9.00
2017-11-09T02:12:54.960Z,9.00
2017-11-09T02:15:21.029Z,9.00
2017-11-09T02:17:47.005Z,9.00
2017-11-09T02:20:12.996Z,8.90
2017-11-09T02:22:39.221Z,9.00
2017-11-09T02:25:05.232Z,8.90
2017-11-09T02:27:31.168Z,8.90
2017-11-09T02:29:57.119Z,9.00
2017-11-09T02:32:23.817Z,8.80
2017-11-09T02:34:49.773Z,8.80
2017-11-09T02:37:15.748Z,8.90
2017-11-09T02:39:42.448Z,8.80
2017-11-09T02:42:08.401Z,8.80
2017-11-09T02:44:34.428Z,8.90
2017-11-09T02:47:00.379Z,9.00
2017-11-09T02:49:26.366Z,8.90
2017-11-09T02:51:52.368Z,9.00
2017-11-09T02:54:27.536Z,9.00
2017-11-09T02:56:53.470Z,9.00
2017-11-09T02:59:19.432Z,9.10
2017-11-09T03:01:47.264Z,9.10
2017-11-09T03:04:13.209Z,9.10
2017-11-09T03:06:39.893Z,9.20
2017-11-09T03:09:05.835Z,9.10
2017-11-09T03:11:31.889Z,9.10
2017-11-09T03:13:57.891Z,9.20
2017-11-09T03:16:23.933Z,9.00
2017-11-09T03:18:49.936Z,9.10
2017-11-09T03:21:15.907Z,9.20
2017-11-09T03:23:41.829Z,9.20
2017-11-09T03:26:07.855Z,9.10
2017-11-09T03:28:33.796Z,9.10
2017-11-09T03:30:59.770Z,9.10
2017-11-09T03:33:25.724Z,9.10
2017-11-09T03:35:51.741Z,9.10
2017-11-09T03:38:17.928Z,9.10
2017-11-09T03:40:43.941Z,9.20
2017-11-09T03:43:09.980Z,9.20
2017-11-09T03:45:36.445Z,9.20
2017-11-09T03:48:02.437Z,9.20
2017-11-09T03:50:28.474Z,9.20
2017-11-09T03:52:55.194Z,9.20
2017-11-09T03:55:21.129Z,9.20
2017-11-09T03:57:47.867Z,9.10
2017-11-09T04:00:13.868Z,9.10
2017-11-09T04:02:39.829Z,9.20
2017-11-09T04:05:05.768Z,9.20
2017-11-09T04:07:31.823Z,9.20
2017-11-09T04:09:57.791Z,9.20
2017-11-09T04:12:24.357Z,9.10
2017-11-09T04:14:50.336Z,9.00
2017-11-09T04:17:16.271Z,8.80
2017-11-09T04:19:42.224Z,8.80
2017-11-09T04:22:08.253Z,8.70
2017-11-09T04:24:34.237Z,8.80
2017-11-09T04:27:00.186Z,8.80
2017-11-09T04:29:26.319Z,8.80
2017-11-09T04:31:52.261Z,8.90
2017-11-09T04:34:18.197Z,8.90
2017-11-09T04:36:44.115Z,8.90
2017-11-09T04:39:10.124Z,8.80
2017-11-09T04:41:36.053Z,8.90
2017-11-09T04:44:02.070Z,8.90
2017-11-09T04:46:28.895Z,8.70
2017-11-09T04:48:54.926Z,8.70
2017-11-09T04:51:20.941Z,8.70
2017-11-09T04:53:46.868Z,8.70
2017-11-09T04:56:13.169Z,8.60
2017-11-09T04:58:39.129Z,8.70
2017-11-09T05:01:05.160Z,8.80
2017-11-09T05:03:31.169Z,8.90
2017-11-09T05:05:57.129Z,8.80
2017-11-09T05:08:23.107Z,8.80
2017-11-09T05:10:49.036Z,8.70
2017-11-09T05:13:15.096Z,8.60
2017-11-09T05:15:41.045Z,8.60
2017-11-09T05:18:07.034Z,8.70
2017-11-09T05:20:33.093Z,8.60
2017-11-09T05:22:59.108Z,8.60
2017-11-09T05:25:25.803Z,8.80
2017-11-09T05:27:51.794Z,8.70
2017-11-09T05:30:17.842Z,8.80
2017-11-09T05:32:43.870Z,8.80
2017-11-09T05:35:10.608Z,8.70
2017-11-09T05:37:36.745Z,8.70
2017-11-09T05:40:02.781Z,8.70
2017-11-09T05:42:28.782Z,8.60
2017-11-09T05:44:54.764Z,8.60
2017-11-09T05:47:20.764Z,8.60
2017-11-09T05:49:46.745Z,8.60
2017-11-09T05:52:12.897Z,8.60
2017-11-09T05:54:38.873Z,8.70
2017-11-09T05:57:04.826Z,8.90
2017-11-09T05:59:30.796Z,8.90
2017-11-09T06:01:56.759Z,8.90
2017-11-09T06:04:23.501Z,8.70
2017-11-09T06:06:49.535Z,8.70
2017-11-09T06:09:15.643Z,8.70
2017-11-09T06:11:41.621Z,8.80
2017-11-09T06:14:07.596Z,8.90
2017-11-09T06:16:33.648Z,9.00
2017-11-09T06:18:59.674Z,9.10
2017-11-09T06:21:25.644Z,9.10
2017-11-09T06:23:51.573Z,9.00
2017-11-09T06:26:17.533Z,9.00
2017-11-09T06:28:44.366Z,9.00
2017-11-09T06:31:10.405Z,9.00
2017-11-09T06:33:37.451Z,9.10
2017-11-09T06:36:03.600Z,9.10
2017-11-09T06:38:29.640Z,9.10
2017-11-09T06:40:55.809Z,9.00
2017-11-09T06:43:21.833Z,9.00
2017-11-09T06:45:47.852Z,8.90
2017-11-09T06:48:13.976Z,8.90
2017-11-09T06:50:41.055Z,9.00
2017-11-09T06:53:07.042Z,8.90
2017-11-09T06:55:33.100Z,9.00
2017-11-09T06:57:59.309Z,9.10
2017-11-09T07:00:25.611Z,9.10
2017-11-09T07:02:52.627Z,9.10
2017-11-09T07:05:19.461Z,9.20
2017-11-09T07:07:45.538Z,9.20
2017-11-09T07:10:11.585Z,9.20
2017-11-09T07:12:37.714Z,9.10
2017-11-09T07:15:04.486Z,9.10
2017-11-09T07:17:31.307Z,9.00
2017-11-09T07:19:57.333Z,9.00
2017-11-09T07:22:24.315Z,9.00
2017-11-09T07:24:50.424Z,8.90
2017-11-09T07:27:16.557Z,8.80
2017-11-09T07:29:43.298Z,9.00
2017-11-09T07:32:10.041Z,9.00
2017-11-09T07:34:36.159Z,8.90
2017-11-09T07:37:02.277Z,9.00
2017-11-09T07:39:28.452Z,9.00
2017-11-09T07:41:54.547Z,9.10
2017-11-09T07:44:21.415Z,9.00
2017-11-09T07:46:48.519Z,9.00
2017-11-09T07:49:14.580Z,9.20
2017-11-09T07:51:40.646Z,9.10
2017-11-09T07:54:06.729Z,9.40
2017-11-09T07:56:32.889Z,9.40
2017-11-09T07:58:59.073Z,9.40
2017-11-09T08:01:25.789Z,9.40
2017-11-09T08:03:55.277Z,9.50
2017-11-09T08:06:22.888Z,9.40
2017-11-09T08:08:49.622Z,9.40
2017-11-09T08:11:15.642Z,9.50
2017-11-09T08:13:43.170Z,9.50
2017-11-09T08:16:11.481Z,9.70
2017-11-09T08:18:37.520Z,9.60
2017-11-09T08:21:03.603Z,9.70
2017-11-09T08:23:30.484Z,9.40
2017-11-09T08:25:59.559Z,9.30
2017-11-09T08:28:32.321Z,9.30
2017-11-09T08:31:01.843Z,9.60
2017-11-09T08:33:30.272Z,9.50
2017-11-09T08:35:56.318Z,9.60
2017-11-09T08:38:22.473Z,9.50
2017-11-09T08:40:48.493Z,9.70
2017-11-09T08:43:14.500Z,9.60
2017-11-09T08:45:41.043Z,9.80
2017-11-09T08:48:07.121Z,9.70
2017-11-09T08:50:33.118Z,9.50
2017-11-09T08:52:59.140Z,9.60
2017-11-09T08:55:25.152Z,9.50
2017-11-09T08:57:51.177Z,9.80
2017-11-09T09:00:17.219Z,9.70
2017-11-09T09:02:43.264Z,9.80
2017-11-09T09:05:10.306Z,9.80
2017-11-09T09:07:36.419Z,9.70
2017-11-09T09:10:02.699Z,9.70
2017-11-09T09:12:29.692Z,9.90
2017-11-09T09:14:55.798Z,9.90
2017-11-09T09:17:21.751Z,10.10
2017-11-09T09:19:47.739Z,10.10
2017-11-09T09:22:24.126Z,10.00
2017-11-09T09:24:50.112Z,9.80
2017-11-09T09:27:21.101Z,10.00
2017-11-09T09:29:52.471Z,9.90
2017-11-09T09:32:22.154Z,9.80
2017-11-09T09:34:55.258Z,9.80
2017-11-09T09:37:24.600Z,9.70
2017-11-09T09:39:55.665Z,9.70
2017-11-09T09:42:21.812Z,9.70
2017-11-09T09:44:47.888Z,9.70
2017-11-09T09:47:13.925Z,9.80
2017-11-09T09:49:40.006Z,9.80
2017-11-09T09:52:06.107Z,9.80
2017-11-09T09:54:32.176Z,9.80
2017-11-09T09:56:58.184Z,9.80
2017-11-09T09:59:24.998Z,9.70
2017-11-09T10:01:51.039Z,9.70
2017-11-09T10:04:17.035Z,9.80
2017-11-09T10:06:43.152Z,9.90
2017-11-09T10:09:09.122Z,9.90
2017-11-09T10:11:35.247Z,9.80
2017-11-09T10:14:01.308Z,9.80
2017-11-09T10:16:27.334Z,9.80
2017-11-09T10:18:53.352Z,9.80
2017-11-09T10:21:19.402Z,9.80
2017-11-09T10:23:45.426Z,9.80
2017-11-09T10:26:11.396Z,9.70
2017-11-09T10:28:37.546Z,9.70
2017-11-09T10:31:03.677Z,9.70
2017-11-09T10:33:29.688Z,10.00
2017-11-09T10:35:56.738Z,9.80
2017-11-09T10:38:22.777Z,9.80
2017-11-09T10:40:48.785Z,9.70
2017-11-09T10:43:14.826Z,9.60
2017-11-09T10:45:41.692Z,9.60
2017-11-09T10:48:07.767Z,9.70
2017-11-09T10:50:33.776Z,9.60
2017-11-09T10:52:59.845Z,9.60
2017-11-09T10:55:26.211Z,9.50
2017-11-09T10:57:52.403Z,9.50
2017-11-09T11:00:18.381Z,9.60
2017-11-09T11:02:45.169Z,9.60
2017-11-09T11:05:12.396Z,9.50
2017-11-09T11:07:39.103Z,9.50
2017-11-09T11:10:05.169Z,9.50
2017-11-09T11:12:31.178Z,9.50
2017-11-09T11:14:57.156Z,9.50
2017-11-09T11:17:24.258Z,9.50
2017-11-09T11:19:50.244Z,9.50
2017-11-09T11:22:16.253Z,9.50
2017-11-09T11:24:42.404Z,9.50
2017-11-09T11:27:08.507Z,9.40
2017-11-09T11:29:34.596Z,9.30
2017-11-09T11:32:00.836Z,9.40
2017-11-09T11:34:27.052Z,9.40
2017-11-09T11:36:53.034Z,9.50
2017-11-09T11:39:19.048Z,9.50
2017-11-09T11:41:45.042Z,9.50
2017-11-09T11:44:11.157Z,9.60
2017-11-09T11:46:37.407Z,9.60
2017-11-09T11:49:03.481Z,9.50
2017-11-09T11:51:29.768Z,9.60
2017-11-09T11:53:56.723Z,9.60
2017-11-09T11:56:22.851Z,9.60
2017-11-09T11:58:49.011Z,9.50
2017-11-09T12:01:14.993Z,9.50
2017-11-09T12:03:45.922Z,9.50
2017-11-09T12:06:12.009Z,9.60
2017-11-09T12:08:38.022Z,9.60
2017-11-09T12:11:04.718Z,9.60
2017-11-09T12:13:30.905Z,9.70
2017-11-09T12:15:57.686Z,9.70
2017-11-09T12:18:23.688Z,9.70
2017-11-09T12:20:49.683Z,9.80
2017-11-09T12:23:15.758Z,9.80
2017-11-09T12:25:41.944Z,9.80
2017-11-09T12:28:08.159Z,9.90
2017-11-09T12:30:34.182Z,9.90
2017-11-09T12:33:00.276Z,10.20
2017-11-09T12:35:26.330Z,10.10
2017-11-09T12:37:52.271Z,10.10
2017-11-09T12:40:18.290Z,10.10
2017-11-09T12:42:44.253Z,10.10
2017-11-09T12:45:10.425Z,10.10
2017-11-09T12:47:37.380Z,10.10
2017-11-09T12:50:03.508Z,10.20
2017-11-09T12:52:31.224Z,10.10
2017-11-09T12:54:59.091Z,10.00
2017-11-09T12:57:26.070Z,10.10
2017-11-09T13:02:26.581Z,10.00
2017-11-09T13:04:53.221Z,10.00
2017-11-09T13:07:19.169Z,10.10
2017-11-09T13:09:45.115Z,10.10
2017-11-09T13:17:14.143Z,10.30
2017-11-09T13:24:45.173Z,10.20
2017-11-09T13:29:43.094Z,10.20
2017-11-09T13:34:40.681Z,10.20
2017-11-09T13:39:38.896Z,10.20
2017-11-09T13:42:05.738Z,10.10
2017-11-09T13:44:32.933Z,10.20
2017-11-09T13:46:59.862Z,10.20
2017-11-09T13:49:26.786Z,10.10
2017-11-09T13:51:52.804Z,10.10
2017-11-09T13:54:18.827Z,10.00
2017-11-09T13:56:46.693Z,10.10
2017-11-09T14:01:43.550Z,10.10
2017-11-09T14:04:10.243Z,10.20
2017-11-09T14:06:37.972Z,10.20
2017-11-09T14:09:04.245Z,10.20
2017-11-09T14:21:34.660Z,10.10
2017-11-09T14:24:00.883Z,10.10
2017-11-09T14:26:27.595Z,10.10
2017-11-09T14:28:53.862Z,10.10
2017-11-09T14:31:20.160Z,10.20
2017-11-09T14:33:49.993Z,10.10
2017-11-09T14:36:16.026Z,10.10
2017-11-09T14:38:42.054Z,10.10
2017-11-09T14:41:08.018Z,10.10
2017-11-09T14:43:34.798Z,10.10
2017-11-09T14:46:02.369Z,10.10
2017-11-09T14:48:28.433Z,10.10
2017-11-09T14:50:54.433Z,10.10
2017-11-09T14:53:20.403Z,10.10
2017-11-09T14:55:46.452Z,10.10
2017-11-09T14:58:12.496Z,10.00
2017-11-09T15:00:38.650Z,10.00
2017-11-09T15:03:04.645Z,10.00
2017-11-09T15:05:30.669Z,10.00
2017-11-09T15:07:56.810Z,9.90
2017-11-09T15:10:22.810Z,10.00
2017-11-09T15:12:48.785Z,9.90
2017-11-09T15:15:15.578Z,9.90
2017-11-09T15:17:41.602Z,9.90
2017-11-09T15:20:07.872Z,10.00
2017-11-09T15:22:34.005Z,9.90
2017-11-09T15:25:00.008Z,9.90
2017-11-09T15:29:56.885Z,9.90
2017-11-09T15:32:23.881Z,9.80
2017-11-09T15:34:49.896Z,9.80
2017-11-09T15:37:18.130Z,9.80
2017-11-09T15:39:44.120Z,9.80
2017-11-09T15:42:10.940Z,9.90
2017-11-09T15:44:36.973Z,9.80
2017-11-09T15:47:03.016Z,9.90
2017-11-09T15:49:29.824Z,9.80
2017-11-09T15:51:55.765Z,9.90
2017-11-09T15:54:22.101Z,9.70
2017-11-09T15:56:48.128Z,9.80
2017-11-09T15:59:14.116Z,9.70
2017-11-09T16:01:40.069Z,9.80
2017-11-09T16:04:06.815Z,9.80
2017-11-09T16:06:37.722Z,9.80
2017-11-09T16:09:03.718Z,9.90
2017-11-09T16:11:29.722Z,10.00
2017-11-09T16:13:55.707Z,9.90
2017-11-09T16:16:21.708Z,9.90
2017-11-09T16:18:47.688Z,9.80
2017-11-09T16:21:13.716Z,9.80
2017-11-09T16:23:39.656Z,9.80
2017-11-09T16:26:05.745Z,9.80
2017-11-09T16:28:31.815Z,9.90
2017-11-09T16:30:57.707Z,9.90
2017-11-09T16:33:23.641Z,9.90
2017-11-09T16:35:49.709Z,9.90
2017-11-09T16:38:16.441Z,9.90
2017-11-09T16:40:42.440Z,9.90
2017-11-09T16:43:09.138Z,9.90
2017-11-09T16:45:35.957Z,9.80
2017-11-09T16:48:01.978Z,9.90
2017-11-09T16:50:28.368Z,9.90
2017-11-09T16:52:56.236Z,9.90
2017-11-09T16:55:22.281Z,9.90
2017-11-09T16:57:49.426Z,9.90
2017-11-09T17:00:15.422Z,9.80
2017-11-09T17:02:41.419Z,9.80
2017-11-09T17:05:07.475Z,9.90
2017-11-09T17:07:35.539Z,9.90
2017-11-09T17:10:01.991Z,9.80
2017-11-09T17:12:28.795Z,9.80
2017-11-09T17:15:00.642Z,9.80
2017-11-09T17:17:26.844Z,9.80
2017-11-09T17:19:52.837Z,9.80
2017-11-09T17:22:19.588Z,9.80
2017-11-09T17:24:45.657Z,9.70
2017-11-09T17:27:11.718Z,9.70
2017-11-09T17:29:37.778Z,9.70
2017-11-09T17:32:03.764Z,9.60
2017-11-09T17:34:29.862Z,9.60
2017-11-09T17:36:55.927Z,9.60
2017-11-09T17:39:21.967Z,9.60
2017-11-09T17:41:54.515Z,9.60
2017-11-09T17:44:20.566Z,9.60
2017-11-09T17:46:47.382Z,9.40
2017-11-09T17:49:14.505Z,9.40
2017-11-09T17:51:40.574Z,9.40
2017-11-09T17:54:07.432Z,9.40
2017-11-09T17:56:33.477Z,9.40
2017-11-09T17:59:01.723Z,9.40
2017-11-09T18:01:27.708Z,9.40
2017-11-09T18:03:53.710Z,9.50
2017-11-09T18:06:19.737Z,9.50
2017-11-09T18:08:45.845Z,9.50
2017-11-09T18:11:12.849Z,9.50
2017-11-09T18:13:39.598Z,9.60
2017-11-09T18:16:05.664Z,9.50
2017-11-09T18:18:33.360Z,9.60
2017-11-09T18:20:59.456Z,9.60
2017-11-09T18:23:25.618Z,9.60
2017-11-09T18:25:51.681Z,9.60
2017-11-09T18:28:17.833Z,9.60
2017-11-09T18:30:46.158Z,9.50
2017-11-09T18:33:12.269Z,9.50
2017-11-09T18:35:38.309Z,9.50
2017-11-09T18:38:04.461Z,9.40
2017-11-09T18:40:30.605Z,9.30
2017-11-09T18:42:56.782Z,9.30
2017-11-09T18:45:27.259Z,9.20
2017-11-09T18:47:53.249Z,9.30
2017-11-09T18:50:20.412Z,9.10
2017-11-09T18:52:46.507Z,9.10
2017-11-09T18:55:14.323Z,9.10
2017-11-09T18:57:40.521Z,9.00
2017-11-09T19:00:06.781Z,9.00
2017-11-09T19:02:32.770Z,9.00
2017-11-09T19:04:59.784Z,9.00
2017-11-09T19:07:26.556Z,9.00
2017-11-09T19:09:52.555Z,8.90
2017-11-09T19:12:18.653Z,8.90
2017-11-09T19:14:44.803Z,8.80
2017-11-09T19:17:10.846Z,8.70
2017-11-09T19:19:36.836Z,8.60
2017-11-09T19:22:03.859Z,8.40
2017-11-09T19:24:29.885Z,8.30
2017-11-09T19:26:55.844Z,8.30
2017-11-09T19:29:22.003Z,8.30
2017-11-09T19:31:47.997Z,8.30
2017-11-09T19:34:13.991Z,8.30
2017-11-09T19:36:39.999Z,8.40
2017-11-09T19:39:06.078Z,8.20
2017-11-09T19:41:32.312Z,8.20
2017-11-09T19:43:58.688Z,8.20
2017-11-09T19:46:24.753Z,8.10
2017-11-09T19:48:50.760Z,8.20
2017-11-09T19:51:17.519Z,8.20
2017-11-09T19:53:43.657Z,8.20
2017-11-09T19:56:09.861Z,8.20
2017-11-09T19:58:35.995Z,8.20
2017-11-09T20:01:02.162Z,8.20
2017-11-09T20:03:28.143Z,8.20
2017-11-09T20:05:54.127Z,8.20
2017-11-09T20:08:20.869Z,8.20
2017-11-09T20:10:46.794Z,8.30
2017-11-09T20:13:12.897Z,8.20
2017-11-09T20:15:38.902Z,8.20
2017-11-09T20:18:04.874Z,8.10
2017-11-09T20:20:31.529Z,8.20
2017-11-09T20:22:57.623Z,8.00
2017-11-09T20:25:23.757Z,8.20
2017-11-09T20:27:51.546Z,8.30
2017-11-09T20:30:17.507Z,8.30
2017-11-09T20:32:43.544Z,8.40
2017-11-09T20:35:10.373Z,8.40
2017-11-09T20:37:36.457Z,8.40
2017-11-09T20:40:02.660Z,8.40
2017-11-09T20:42:28.780Z,8.50
2017-11-09T20:44:55.005Z,8.50
2017-11-09T20:47:21.885Z,8.50
2017-11-09T20:49:47.974Z,8.40
2017-11-09T20:52:13.988Z,8.50
2017-11-09T20:54:40.921Z,8.40
2017-11-09T20:57:07.737Z,8.50
2017-11-09T20:59:33.906Z,8.40
2017-11-09T21:02:00.842Z,8.50
2017-11-09T21:04:27.037Z,8.40
2017-11-09T21:06:54.485Z,8.40
2017-11-09T21:09:20.521Z,8.20
2017-11-09T21:11:46.571Z,8.40
2017-11-09T21:14:12.554Z,8.40
2017-11-09T21:16:38.560Z,8.30
2017-11-09T21:19:04.639Z,8.40
2017-11-09T21:21:31.039Z,8.40
2017-11-09T21:23:57.058Z,8.40
2017-11-09T21:26:23.090Z,8.50
2017-11-09T21:28:49.151Z,8.40
2017-11-09T21:31:16.037Z,8.40
2017-11-09T21:33:42.177Z,8.30
2017-11-09T21:36:08.206Z,8.40
2017-11-09T21:38:34.201Z,8.30
2017-11-09T21:41:00.249Z,8.30
2017-11-09T21:43:26.274Z,8.30
2017-11-09T21:45:53.159Z,8.20
2017-11-09T21:48:19.154Z,8.20
2017-11-09T21:50:45.996Z,8.20
2017-11-09T21:53:11.957Z,8.20
2017-11-09T21:55:38.069Z,8.20
2017-11-09T21:58:04.882Z,8.30
2017-11-09T22:00:30.856Z,8.20
2017-11-09T22:02:56.825Z,8.20
2017-11-09T22:05:23.151Z,8.10
2017-11-09T22:07:49.160Z,8.10
2017-11-09T22:10:15.119Z,8.10
2017-11-09T22:12:41.834Z,8.10
2017-11-09T22:15:07.866Z,8.10
2017-11-09T22:17:33.793Z,8.10
2017-11-09T22:20:00.318Z,8.10
2017-11-09T22:22:26.322Z,8.10
2017-11-09T22:24:52.958Z,8.00
2017-11-09T22:27:19.743Z,8.10
2017-11-09T22:29:46.471Z,8.10
2017-11-09T22:32:12.468Z,8.10
2017-11-09T22:34:39.218Z,8.20
2017-11-09T22:37:05.254Z,8.10
2017-11-09T22:39:31.188Z,8.10
2017-11-09T22:41:57.921Z,8.30
2017-11-09T22:44:24.639Z,8.30
2017-11-09T22:46:50.608Z,8.40
2017-11-09T22:49:16.564Z,8.00
2017-11-09T22:51:42.603Z,8.00
2017-11-09T22:54:08.676Z,8.00
2017-11-09T22:56:34.663Z,8.00
2017-11-09T22:59:00.694Z,7.90
2017-11-09T23:01:26.747Z,7.80
2017-11-09T23:03:52.734Z,7.80
2017-11-09T23:06:18.721Z,7.70
2017-11-09T23:08:44.741Z,7.70
2017-11-09T23:11:10.776Z,7.70
2017-11-09T23:13:36.734Z,7.70
2017-11-09T23:16:02.771Z,7.70
2017-11-09T23:18:28.790Z,7.70
2017-11-09T23:20:54.796Z,7.80
2017-11-09T23:23:20.766Z,7.70
2017-11-09T23:25:46.734Z,7.60
2017-11-09T23:28:12.733Z,7.60
2017-11-09T23:30:38.807Z,7.50
2017-11-09T23:33:04.806Z,7.60
2017-11-09T23:35:30.736Z,7.40
2017-11-09T23:37:56.753Z,7.40
2017-11-09T23:40:22.829Z,7.40
2017-11-09T23:42:48.888Z,7.40
2017-11-09T23:45:14.936Z,7.30
2017-11-09T23:47:40.937Z,7.30
2017-11-09T23:50:07.757Z,7.30
2017-11-09T23:52:33.736Z,7.30
2017-11-09T23:54:59.776Z,7.30
2017-11-09T23:57:25.764Z,7.20
2017-11-09T23:59:51.886Z,7.20
